sensor_id;sensor_type;location;lat;lon;timestamp;pressure;altitude;pressure_sealevel;temperature;humidity
56604;BME280;42486;47.478;19.036;2023-07-31T00:01:44;99923.91;;;19.55;100.00
56604;BME280;42486;47.478;19.036;2023-07-31T00:04:47;99916.13;;;19.53;100.00
56604;BME280;42486;47.478;19.036;2023-07-31T00:07:55;99916.22;;;19.60;100.00
56604;BME280;42486;47.478;19.036;2023-07-31T00:10:58;99920.47;;;19.69;100.00
56604;BME280;42486;47.478;19.036;2023-07-31T00:14:09;99915.16;;;19.69;100.00
56604;BME280;42486;47.478;19.036;2023-07-31T00:17:19;99915.00;;;19.71;100.00
56604;BME280;42486;47.478;19.036;2023-07-31T00:20:32;99912.59;;;19.76;100.00
56604;BME280;42486;47.478;19.036;2023-07-31T00:23:52;99917.97;;;19.68;100.00
56604;BME280;42486;47.478;19.036;2023-07-31T00:26:54;99919.91;;;19.74;100.00
56604;BME280;42486;47.478;19.036;2023-07-31T00:30:02;99918.47;;;19.71;100.00
56604;BME280;42486;47.478;19.036;2023-07-31T00:33:21;99923.00;;;19.77;100.00
56604;BME280;42486;47.478;19.036;2023-07-31T00:36:26;99919.72;;;19.75;100.00
56604;BME280;42486;47.478;19.036;2023-07-31T00:39:31;99919.34;;;19.78;100.00
56604;BME280;42486;47.478;19.036;2023-07-31T00:42:34;99923.09;;;19.69;100.00
56604;BME280;42486;47.478;19.036;2023-07-31T00:45:37;99929.94;;;19.64;100.00
56604;BME280;42486;47.478;19.036;2023-07-31T00:48:41;99933.72;;;19.69;100.00
56604;BME280;42486;47.478;19.036;2023-07-31T00:51:51;99932.91;;;19.69;100.00
56604;BME280;42486;47.478;19.036;2023-07-31T00:55:02;99930.25;;;19.69;100.00
56604;BME280;42486;47.478;19.036;2023-07-31T00:58:08;99925.13;;;19.67;100.00
56604;BME280;42486;47.478;19.036;2023-07-31T01:01:27;99928.41;;;19.69;100.00
56604;BME280;42486;47.478;19.036;2023-07-31T01:04:35;99933.88;;;19.68;100.00
56604;BME280;42486;47.478;19.036;2023-07-31T01:07:59;99934.78;;;19.60;100.00
56604;BME280;42486;47.478;19.036;2023-07-31T01:11:34;99939.59;;;19.56;100.00
56604;BME280;42486;47.478;19.036;2023-07-31T01:15:17;99934.84;;;19.52;100.00
56604;BME280;42486;47.478;19.036;2023-07-31T01:18:22;99934.59;;;19.47;100.00
56604;BME280;42486;47.478;19.036;2023-07-31T01:31:53;99954.38;;;19.36;100.00
56604;BME280;42486;47.478;19.036;2023-07-31T01:35:00;99949.56;;;19.40;100.00
56604;BME280;42486;47.478;19.036;2023-07-31T01:38:05;99952.00;;;19.41;100.00
56604;BME280;42486;47.478;19.036;2023-07-31T01:41:17;99944.91;;;19.42;100.00
56604;BME280;42486;47.478;19.036;2023-07-31T01:44:24;99938.97;;;19.40;100.00
56604;BME280;42486;47.478;19.036;2023-07-31T01:47:28;99947.97;;;19.30;100.00
56604;BME280;42486;47.478;19.036;2023-07-31T01:50:31;99943.53;;;19.31;100.00
56604;BME280;42486;47.478;19.036;2023-07-31T01:53:51;99934.91;;;19.29;100.00
56604;BME280;42486;47.478;19.036;2023-07-31T01:57:05;99935.38;;;19.32;100.00
56604;BME280;42486;47.478;19.036;2023-07-31T02:00:13;99930.31;;;19.23;100.00
56604;BME280;42486;47.478;19.036;2023-07-31T02:03:32;99921.03;;;19.27;100.00
56604;BME280;42486;47.478;19.036;2023-07-31T02:06:41;99917.44;;;19.20;100.00
56604;BME280;42486;47.478;19.036;2023-07-31T02:09:52;99917.63;;;19.18;100.00
56604;BME280;42486;47.478;19.036;2023-07-31T02:13:00;99923.19;;;19.08;100.00
56604;BME280;42486;47.478;19.036;2023-07-31T02:16:15;99922.06;;;19.03;100.00
56604;BME280;42486;47.478;19.036;2023-07-31T02:19:24;99930.91;;;18.95;100.00
56604;BME280;42486;47.478;19.036;2023-07-31T02:22:27;99927.13;;;18.89;100.00
56604;BME280;42486;47.478;19.036;2023-07-31T02:25:41;99933.16;;;18.83;100.00
56604;BME280;42486;47.478;19.036;2023-07-31T02:28:51;99925.00;;;18.85;100.00
56604;BME280;42486;47.478;19.036;2023-07-31T02:31:56;99930.00;;;18.80;100.00
56604;BME280;42486;47.478;19.036;2023-07-31T02:34:59;99938.31;;;18.77;100.00
56604;BME280;42486;47.478;19.036;2023-07-31T02:38:13;99946.75;;;18.72;100.00
56604;BME280;42486;47.478;19.036;2023-07-31T02:41:19;99945.25;;;18.69;100.00
56604;BME280;42486;47.478;19.036;2023-07-31T02:44:21;99940.53;;;18.65;100.00
56604;BME280;42486;47.478;19.036;2023-07-31T02:47:28;99943.34;;;18.63;100.00
56604;BME280;42486;47.478;19.036;2023-07-31T02:50:49;99948.63;;;18.63;100.00
56604;BME280;42486;47.478;19.036;2023-07-31T02:54:02;99958.56;;;18.61;100.00
56604;BME280;42486;47.478;19.036;2023-07-31T02:57:07;99960.22;;;18.62;100.00
56604;BME280;42486;47.478;19.036;2023-07-31T03:00:14;99962.97;;;18.46;100.00
56604;BME280;42486;47.478;19.036;2023-07-31T03:03:34;99965.31;;;18.41;100.00
56604;BME280;42486;47.478;19.036;2023-07-31T03:06:39;99971.91;;;18.37;100.00
56604;BME280;42486;47.478;19.036;2023-07-31T03:09:44;99963.81;;;18.38;100.00
56604;BME280;42486;47.478;19.036;2023-07-31T03:13:01;99975.06;;;18.40;100.00
56604;BME280;42486;47.478;19.036;2023-07-31T03:16:05;99979.91;;;18.29;100.00
56604;BME280;42486;47.478;19.036;2023-07-31T03:19:10;99984.19;;;18.30;100.00
56604;BME280;42486;47.478;19.036;2023-07-31T03:22:20;99985.69;;;18.24;100.00
56604;BME280;42486;47.478;19.036;2023-07-31T03:26:01;99992.16;;;18.21;100.00
56604;BME280;42486;47.478;19.036;2023-07-31T03:29:26;99987.88;;;18.20;100.00
56604;BME280;42486;47.478;19.036;2023-07-31T03:32:31;99992.13;;;18.30;100.00
56604;BME280;42486;47.478;19.036;2023-07-31T03:35:34;99984.72;;;18.25;100.00
56604;BME280;42486;47.478;19.036;2023-07-31T03:38:40;99983.72;;;18.26;100.00
56604;BME280;42486;47.478;19.036;2023-07-31T03:41:49;99978.41;;;18.26;100.00
56604;BME280;42486;47.478;19.036;2023-07-31T03:45:12;99984.19;;;18.30;100.00
56604;BME280;42486;47.478;19.036;2023-07-31T03:48:32;99984.50;;;18.35;100.00
56604;BME280;42486;47.478;19.036;2023-07-31T03:51:35;99990.09;;;18.40;100.00
56604;BME280;42486;47.478;19.036;2023-07-31T03:54:39;99995.56;;;18.38;100.00
56604;BME280;42486;47.478;19.036;2023-07-31T03:57:45;99997.88;;;18.41;100.00
56604;BME280;42486;47.478;19.036;2023-07-31T04:00:48;99992.38;;;18.51;100.00
56604;BME280;42486;47.478;19.036;2023-07-31T04:03:52;99982.12;;;18.48;100.00
56604;BME280;42486;47.478;19.036;2023-07-31T04:07:12;99989.69;;;18.59;100.00
56604;BME280;42486;47.478;19.036;2023-07-31T04:10:23;99991.97;;;18.62;100.00
56604;BME280;42486;47.478;19.036;2023-07-31T04:13:46;99997.22;;;18.70;100.00
56604;BME280;42486;47.478;19.036;2023-07-31T04:17:33;99989.75;;;18.74;100.00
56604;BME280;42486;47.478;19.036;2023-07-31T04:20:36;99984.78;;;18.79;100.00
56604;BME280;42486;47.478;19.036;2023-07-31T04:23:52;99996.19;;;18.80;100.00
56604;BME280;42486;47.478;19.036;2023-07-31T04:27:00;99996.31;;;18.86;100.00
56604;BME280;42486;47.478;19.036;2023-07-31T04:30:10;99992.84;;;18.86;100.00
56604;BME280;42486;47.478;19.036;2023-07-31T04:33:17;99988.03;;;18.89;100.00
56604;BME280;42486;47.478;19.036;2023-07-31T04:36:23;99994.44;;;18.95;100.00
56604;BME280;42486;47.478;19.036;2023-07-31T04:39:37;99991.78;;;18.95;100.00
56604;BME280;42486;47.478;19.036;2023-07-31T04:42:41;99983.97;;;19.02;100.00
56604;BME280;42486;47.478;19.036;2023-07-31T04:45:50;99989.19;;;18.87;100.00
56604;BME280;42486;47.478;19.036;2023-07-31T04:48:58;99993.84;;;19.08;100.00
56604;BME280;42486;47.478;19.036;2023-07-31T04:52:05;99996.88;;;19.43;100.00
56604;BME280;42486;47.478;19.036;2023-07-31T04:55:10;100000.25;;;19.36;97.58
56604;BME280;42486;47.478;19.036;2023-07-31T04:58:37;100009.56;;;19.32;92.95
56604;BME280;42486;47.478;19.036;2023-07-31T05:01:43;99996.84;;;19.28;91.71
56604;BME280;42486;47.478;19.036;2023-07-31T05:04:59;99995.34;;;19.25;90.93
56604;BME280;42486;47.478;19.036;2023-07-31T05:08:06;100004.53;;;19.37;92.16
56604;BME280;42486;47.478;19.036;2023-07-31T05:11:14;100012.50;;;19.37;83.86
56604;BME280;42486;47.478;19.036;2023-07-31T05:14:23;100017.19;;;19.50;87.27
56604;BME280;42486;47.478;19.036;2023-07-31T05:17:40;100011.69;;;19.52;75.39
56604;BME280;42486;47.478;19.036;2023-07-31T05:20:51;100015.62;;;19.79;70.44
56604;BME280;42486;47.478;19.036;2023-07-31T05:23:54;100015.75;;;20.00;71.81
56604;BME280;42486;47.478;19.036;2023-07-31T05:27:07;100014.63;;;20.10;72.33
56604;BME280;42486;47.478;19.036;2023-07-31T05:30:12;100021.50;;;20.19;68.55
56604;BME280;42486;47.478;19.036;2023-07-31T05:33:15;100021.78;;;21.54;64.83
56604;BME280;42486;47.478;19.036;2023-07-31T05:36:19;100025.31;;;21.96;59.87
56604;BME280;42486;47.478;19.036;2023-07-31T05:39:31;100025.53;;;21.39;61.06
56604;BME280;42486;47.478;19.036;2023-07-31T05:46:41;100029.53;;;20.40;65.68
56604;BME280;42486;47.478;19.036;2023-07-31T05:49:53;100026.34;;;20.30;66.67
56604;BME280;42486;47.478;19.036;2023-07-31T05:52:59;100042.88;;;20.47;66.27
56604;BME280;42486;47.478;19.036;2023-07-31T05:56:17;100033.37;;;20.38;65.45
56604;BME280;42486;47.478;19.036;2023-07-31T05:59:28;100042.16;;;20.53;66.21
56604;BME280;42486;47.478;19.036;2023-07-31T06:02:38;100048.88;;;20.85;64.40
56604;BME280;42486;47.478;19.036;2023-07-31T06:05:41;100039.78;;;20.95;64.15
56604;BME280;42486;47.478;19.036;2023-07-31T06:08:50;100050.13;;;21.26;62.30
56604;BME280;42486;47.478;19.036;2023-07-31T06:11:57;100048.84;;;21.43;61.82
56604;BME280;42486;47.478;19.036;2023-07-31T06:15:05;100040.13;;;21.28;62.13
56604;BME280;42486;47.478;19.036;2023-07-31T06:18:10;100035.88;;;21.12;63.71
56604;BME280;42486;47.478;19.036;2023-07-31T06:21:45;100048.84;;;21.22;62.85
56604;BME280;42486;47.478;19.036;2023-07-31T06:24:48;100041.75;;;21.29;62.31
56604;BME280;42486;47.478;19.036;2023-07-31T06:27:51;100037.91;;;21.31;61.68
56604;BME280;42486;47.478;19.036;2023-07-31T06:30:54;100047.41;;;21.62;60.80
56604;BME280;42486;47.478;19.036;2023-07-31T06:34:13;100039.22;;;21.64;60.60
56604;BME280;42486;47.478;19.036;2023-07-31T06:37:18;100036.81;;;21.69;59.17
56604;BME280;42486;47.478;19.036;2023-07-31T06:40:25;100043.25;;;21.81;59.95
56604;BME280;42486;47.478;19.036;2023-07-31T06:43:41;100035.81;;;21.48;60.36
56604;BME280;42486;47.478;19.036;2023-07-31T06:46:45;100043.53;;;21.43;61.78
56604;BME280;42486;47.478;19.036;2023-07-31T06:50:04;100054.50;;;21.55;60.72
56604;BME280;42486;47.478;19.036;2023-07-31T06:53:09;100050.28;;;21.24;61.61
56604;BME280;42486;47.478;19.036;2023-07-31T06:56:17;100058.75;;;20.92;61.69
56604;BME280;42486;47.478;19.036;2023-07-31T06:59:36;100056.22;;;20.83;62.28
56604;BME280;42486;47.478;19.036;2023-07-31T07:02:48;100065.59;;;20.64;64.30
56604;BME280;42486;47.478;19.036;2023-07-31T07:06:09;100065.81;;;20.84;64.42
56604;BME280;42486;47.478;19.036;2023-07-31T07:09:26;100066.19;;;20.81;65.05
56604;BME280;42486;47.478;19.036;2023-07-31T07:12:34;100073.31;;;20.96;65.65
56604;BME280;42486;47.478;19.036;2023-07-31T07:15:37;100079.56;;;20.88;66.74
56604;BME280;42486;47.478;19.036;2023-07-31T07:18:42;100075.41;;;20.64;68.57
56604;BME280;42486;47.478;19.036;2023-07-31T07:22:12;100078.28;;;20.84;68.01
56604;BME280;42486;47.478;19.036;2023-07-31T07:25:30;100076.47;;;21.06;66.31
56604;BME280;42486;47.478;19.036;2023-07-31T07:28:33;100075.34;;;21.80;63.30
56604;BME280;42486;47.478;19.036;2023-07-31T07:31:38;100080.25;;;22.80;58.70
56604;BME280;42486;47.478;19.036;2023-07-31T07:34:41;100092.22;;;23.11;57.23
56604;BME280;42486;47.478;19.036;2023-07-31T07:37:45;100087.25;;;25.44;50.06
56604;BME280;42486;47.478;19.036;2023-07-31T07:40:53;100087.50;;;26.73;45.04
56604;BME280;42486;47.478;19.036;2023-07-31T07:43:57;100093.97;;;26.47;43.55
56604;BME280;42486;47.478;19.036;2023-07-31T07:47:17;100094.47;;;28.00;40.66
56604;BME280;42486;47.478;19.036;2023-07-31T07:50:38;100102.22;;;29.13;37.76
56604;BME280;42486;47.478;19.036;2023-07-31T07:53:48;100084.44;;;26.33;41.83
56604;BME280;42486;47.478;19.036;2023-07-31T07:56:57;100090.16;;;24.59;45.96
56604;BME280;42486;47.478;19.036;2023-07-31T08:00:02;100074.91;;;22.39;51.28
56604;BME280;42486;47.478;19.036;2023-07-31T08:03:15;100076.88;;;22.58;51.11
56604;BME280;42486;47.478;19.036;2023-07-31T08:06:20;100081.66;;;24.82;46.15
56604;BME280;42486;47.478;19.036;2023-07-31T08:09:22;100084.59;;;27.05;41.68
56604;BME280;42486;47.478;19.036;2023-07-31T08:12:31;100089.94;;;27.23;41.06
56604;BME280;42486;47.478;19.036;2023-07-31T08:15:34;100083.41;;;25.40;43.34
56604;BME280;42486;47.478;19.036;2023-07-31T08:18:39;100081.75;;;24.56;44.99
56604;BME280;42486;47.478;19.036;2023-07-31T08:21:51;100081.75;;;24.49;47.79
56604;BME280;42486;47.478;19.036;2023-07-31T08:25:01;100085.72;;;24.20;45.97
56604;BME280;42486;47.478;19.036;2023-07-31T08:28:12;100085.97;;;24.05;46.12
56604;BME280;42486;47.478;19.036;2023-07-31T08:31:19;100087.59;;;23.46;47.33
56604;BME280;42486;47.478;19.036;2023-07-31T08:34:25;100084.56;;;23.89;47.74
56604;BME280;42486;47.478;19.036;2023-07-31T08:37:43;100095.19;;;24.09;45.73
56604;BME280;42486;47.478;19.036;2023-07-31T08:40:46;100093.75;;;23.93;46.91
56604;BME280;42486;47.478;19.036;2023-07-31T08:44:14;100076.72;;;24.08;46.60
56604;BME280;42486;47.478;19.036;2023-07-31T08:47:22;100086.59;;;24.07;48.27
56604;BME280;42486;47.478;19.036;2023-07-31T08:50:29;100077.31;;;24.23;46.99
56604;BME280;42486;47.478;19.036;2023-07-31T08:53:39;100082.91;;;23.95;46.99
56604;BME280;42486;47.478;19.036;2023-07-31T08:56:46;100079.41;;;23.94;45.65
56604;BME280;42486;47.478;19.036;2023-07-31T08:59:57;100080.66;;;23.92;45.96
56604;BME280;42486;47.478;19.036;2023-07-31T09:03:09;100079.41;;;23.88;45.35
56604;BME280;42486;47.478;19.036;2023-07-31T09:06:31;100076.12;;;23.79;45.99
56604;BME280;42486;47.478;19.036;2023-07-31T09:09:36;100064.25;;;23.75;45.71
56604;BME280;42486;47.478;19.036;2023-07-31T09:12:39;100070.16;;;23.57;45.85
56604;BME280;42486;47.478;19.036;2023-07-31T09:15:47;100061.97;;;23.85;44.10
56604;BME280;42486;47.478;19.036;2023-07-31T09:18:56;100068.09;;;23.52;44.82
56604;BME280;42486;47.478;19.036;2023-07-31T09:22:07;100058.47;;;23.58;45.50
56604;BME280;42486;47.478;19.036;2023-07-31T09:25:21;100065.66;;;23.98;46.38
56604;BME280;42486;47.478;19.036;2023-07-31T09:28:31;100062.47;;;24.47;45.72
56604;BME280;42486;47.478;19.036;2023-07-31T09:31:42;100056.31;;;24.40;43.90
56604;BME280;42486;47.478;19.036;2023-07-31T09:34:48;100072.41;;;24.00;44.80
56604;BME280;42486;47.478;19.036;2023-07-31T09:37:52;100060.34;;;23.91;45.71
56604;BME280;42486;47.478;19.036;2023-07-31T09:40:59;100069.47;;;24.42;46.28
56604;BME280;42486;47.478;19.036;2023-07-31T09:44:03;100060.72;;;24.08;46.57
56604;BME280;42486;47.478;19.036;2023-07-31T09:47:32;100052.06;;;24.26;45.88
56604;BME280;42486;47.478;19.036;2023-07-31T09:50:52;100052.69;;;24.73;44.37
56604;BME280;42486;47.478;19.036;2023-07-31T09:54:28;100052.00;;;24.52;42.69
56604;BME280;42486;47.478;19.036;2023-07-31T09:57:31;100047.06;;;24.43;42.62
56604;BME280;42486;47.478;19.036;2023-07-31T10:00:47;100046.78;;;24.64;44.38
56604;BME280;42486;47.478;19.036;2023-07-31T10:03:50;100067.34;;;24.64;43.07
56604;BME280;42486;47.478;19.036;2023-07-31T10:06:54;100049.81;;;24.16;43.79
56604;BME280;42486;47.478;19.036;2023-07-31T10:09:59;100050.97;;;24.33;44.22
56604;BME280;42486;47.478;19.036;2023-07-31T10:13:07;100064.37;;;24.85;43.39
56604;BME280;42486;47.478;19.036;2023-07-31T10:16:16;100064.44;;;24.65;43.11
56604;BME280;42486;47.478;19.036;2023-07-31T10:19:22;100056.16;;;24.80;42.41
56604;BME280;42486;47.478;19.036;2023-07-31T10:22:29;100064.66;;;25.02;42.88
56604;BME280;42486;47.478;19.036;2023-07-31T10:25:38;100056.59;;;25.15;42.49
56604;BME280;42486;47.478;19.036;2023-07-31T10:28:46;100055.41;;;25.04;41.99
56604;BME280;42486;47.478;19.036;2023-07-31T10:31:54;100044.91;;;24.71;43.85
56604;BME280;42486;47.478;19.036;2023-07-31T10:35:11;100048.16;;;24.80;45.65
56604;BME280;42486;47.478;19.036;2023-07-31T10:38:15;100044.94;;;25.03;43.65
56604;BME280;42486;47.478;19.036;2023-07-31T10:41:31;100033.69;;;25.26;43.22
56604;BME280;42486;47.478;19.036;2023-07-31T10:44:34;100029.34;;;25.57;42.65
56604;BME280;42486;47.478;19.036;2023-07-31T10:47:57;100021.91;;;25.84;43.06
56604;BME280;42486;47.478;19.036;2023-07-31T10:51:10;100032.03;;;26.00;43.67
56604;BME280;42486;47.478;19.036;2023-07-31T10:54:27;100024.91;;;26.31;42.43
56604;BME280;42486;47.478;19.036;2023-07-31T10:57:35;100029.38;;;26.19;41.75
56604;BME280;42486;47.478;19.036;2023-07-31T11:00:40;100027.00;;;26.77;40.93
56604;BME280;42486;47.478;19.036;2023-07-31T11:03:47;100021.75;;;26.71;40.00
56604;BME280;42486;47.478;19.036;2023-07-31T11:07:00;100027.56;;;26.98;40.41
56604;BME280;42486;47.478;19.036;2023-07-31T11:10:04;100031.38;;;26.23;39.58
56604;BME280;42486;47.478;19.036;2023-07-31T11:13:10;100026.09;;;26.35;39.99
56604;BME280;42486;47.478;19.036;2023-07-31T11:16:13;100025.56;;;26.26;40.01
56604;BME280;42486;47.478;19.036;2023-07-31T11:19:24;100005.50;;;25.99;40.02
56604;BME280;42486;47.478;19.036;2023-07-31T11:22:30;100019.00;;;26.22;39.17
56604;BME280;42486;47.478;19.036;2023-07-31T11:25:34;100015.12;;;26.73;39.89
56604;BME280;42486;47.478;19.036;2023-07-31T11:28:36;100005.91;;;26.51;39.17
56604;BME280;42486;47.478;19.036;2023-07-31T11:31:47;100009.19;;;26.83;38.44
56604;BME280;42486;47.478;19.036;2023-07-31T11:34:55;100008.78;;;26.98;37.81
56604;BME280;42486;47.478;19.036;2023-07-31T11:37:58;100008.50;;;26.76;37.94
56604;BME280;42486;47.478;19.036;2023-07-31T11:41:04;100003.72;;;27.20;37.85
56604;BME280;42486;47.478;19.036;2023-07-31T11:44:08;99994.25;;;26.75;37.73
56604;BME280;42486;47.478;19.036;2023-07-31T11:47:35;100000.00;;;27.33;37.26
56604;BME280;42486;47.478;19.036;2023-07-31T11:50:46;100001.94;;;27.14;37.30
56604;BME280;42486;47.478;19.036;2023-07-31T11:53:59;99997.00;;;27.29;36.29
56604;BME280;42486;47.478;19.036;2023-07-31T11:57:03;100009.00;;;27.38;36.30
56604;BME280;42486;47.478;19.036;2023-07-31T12:00:09;100009.13;;;27.01;36.82
56604;BME280;42486;47.478;19.036;2023-07-31T12:03:14;99990.69;;;26.93;37.41
56604;BME280;42486;47.478;19.036;2023-07-31T12:06:18;99987.19;;;27.47;37.53
56604;BME280;42486;47.478;19.036;2023-07-31T12:09:27;99995.25;;;27.35;36.63
56604;BME280;42486;47.478;19.036;2023-07-31T12:12:30;99998.38;;;27.43;35.91
56604;BME280;42486;47.478;19.036;2023-07-31T12:15:40;99991.97;;;27.33;36.10
56604;BME280;42486;47.478;19.036;2023-07-31T12:18:49;99980.91;;;27.53;36.62
56604;BME280;42486;47.478;19.036;2023-07-31T12:21:52;99976.19;;;27.13;37.35
56604;BME280;42486;47.478;19.036;2023-07-31T12:24:58;99977.00;;;27.13;37.46
56604;BME280;42486;47.478;19.036;2023-07-31T12:28:05;99958.50;;;26.82;37.99
56604;BME280;42486;47.478;19.036;2023-07-31T12:31:10;99961.41;;;27.22;38.33
56604;BME280;42486;47.478;19.036;2023-07-31T12:34:18;99955.22;;;26.79;38.95
56604;BME280;42486;47.478;19.036;2023-07-31T12:37:21;99958.75;;;26.92;39.29
56604;BME280;42486;47.478;19.036;2023-07-31T12:40:26;99963.63;;;27.37;37.84
56604;BME280;42486;47.478;19.036;2023-07-31T12:43:35;99956.47;;;27.78;37.78
56604;BME280;42486;47.478;19.036;2023-07-31T12:46:38;99960.94;;;27.72;37.11
56604;BME280;42486;47.478;19.036;2023-07-31T12:49:47;99958.22;;;27.60;37.32
56604;BME280;42486;47.478;19.036;2023-07-31T12:52:58;99955.22;;;27.45;37.37
56604;BME280;42486;47.478;19.036;2023-07-31T12:56:07;99955.91;;;27.29;37.59
56604;BME280;42486;47.478;19.036;2023-07-31T12:59:11;99937.59;;;27.61;37.98
56604;BME280;42486;47.478;19.036;2023-07-31T13:02:17;99940.50;;;27.83;37.51
56604;BME280;42486;47.478;19.036;2023-07-31T13:05:27;99937.00;;;27.82;37.08
56604;BME280;42486;47.478;19.036;2023-07-31T13:08:31;99936.91;;;27.18;38.08
56604;BME280;42486;47.478;19.036;2023-07-31T13:11:33;99933.53;;;27.35;37.31
56604;BME280;42486;47.478;19.036;2023-07-31T13:14:35;99930.47;;;27.31;37.99
56604;BME280;42486;47.478;19.036;2023-07-31T13:17:38;99919.75;;;27.43;37.75
56604;BME280;42486;47.478;19.036;2023-07-31T13:20:41;99919.47;;;27.09;38.36
56604;BME280;42486;47.478;19.036;2023-07-31T13:23:50;99923.16;;;27.27;37.90
56604;BME280;42486;47.478;19.036;2023-07-31T13:26:53;99927.56;;;27.44;38.01
56604;BME280;42486;47.478;19.036;2023-07-31T13:29:55;99915.31;;;27.49;37.41
56604;BME280;42486;47.478;19.036;2023-07-31T13:33:00;99929.69;;;27.42;37.12
56604;BME280;42486;47.478;19.036;2023-07-31T13:36:03;99924.75;;;27.16;37.30
56604;BME280;42486;47.478;19.036;2023-07-31T13:39:06;99911.34;;;27.28;37.29
56604;BME280;42486;47.478;19.036;2023-07-31T13:42:12;99915.66;;;27.05;38.05
56604;BME280;42486;47.478;19.036;2023-07-31T13:45:17;99906.41;;;26.89;38.72
56604;BME280;42486;47.478;19.036;2023-07-31T13:48:23;99903.69;;;26.77;38.11
56604;BME280;42486;47.478;19.036;2023-07-31T13:51:36;99907.22;;;26.48;38.36
56604;BME280;42486;47.478;19.036;2023-07-31T13:54:40;99896.38;;;26.85;38.61
56604;BME280;42486;47.478;19.036;2023-07-31T13:57:45;99904.78;;;27.12;38.51
56604;BME280;42486;47.478;19.036;2023-07-31T14:00:48;99904.28;;;26.68;38.17
56604;BME280;42486;47.478;19.036;2023-07-31T14:03:50;99898.00;;;26.74;38.45
56604;BME280;42486;47.478;19.036;2023-07-31T14:06:53;99900.22;;;26.89;38.57
56604;BME280;42486;47.478;19.036;2023-07-31T14:09:57;99895.56;;;26.96;37.61
56604;BME280;42486;47.478;19.036;2023-07-31T14:13:02;99890.16;;;27.26;37.28
56604;BME280;42486;47.478;19.036;2023-07-31T14:16:07;99892.78;;;27.50;37.28
56604;BME280;42486;47.478;19.036;2023-07-31T14:19:10;99892.56;;;27.28;36.84
56604;BME280;42486;47.478;19.036;2023-07-31T14:22:28;99899.31;;;27.07;37.45
56604;BME280;42486;47.478;19.036;2023-07-31T14:25:38;99886.22;;;26.75;38.37
56604;BME280;42486;47.478;19.036;2023-07-31T14:28:41;99879.47;;;26.42;38.56
56604;BME280;42486;47.478;19.036;2023-07-31T14:31:45;99882.25;;;26.35;38.97
56604;BME280;42486;47.478;19.036;2023-07-31T14:34:48;99872.13;;;26.79;38.79
56604;BME280;42486;47.478;19.036;2023-07-31T14:37:51;99877.59;;;26.73;38.14
56604;BME280;42486;47.478;19.036;2023-07-31T14:40:54;99877.47;;;26.91;37.75
56604;BME280;42486;47.478;19.036;2023-07-31T14:44:03;99881.25;;;27.26;37.23
56604;BME280;42486;47.478;19.036;2023-07-31T14:47:10;99878.09;;;27.40;37.69
56604;BME280;42486;47.478;19.036;2023-07-31T14:50:17;99868.06;;;27.00;37.29
56604;BME280;42486;47.478;19.036;2023-07-31T14:53:22;99865.88;;;27.33;37.43
56604;BME280;42486;47.478;19.036;2023-07-31T14:56:25;99873.28;;;27.07;37.48
56604;BME280;42486;47.478;19.036;2023-07-31T14:59:30;99860.53;;;27.21;38.82
56604;BME280;42486;47.478;19.036;2023-07-31T15:02:37;99865.69;;;26.80;37.29
56604;BME280;42486;47.478;19.036;2023-07-31T15:05:45;99861.53;;;26.85;38.37
56604;BME280;42486;47.478;19.036;2023-07-31T15:08:49;99852.44;;;26.86;37.46
56604;BME280;42486;47.478;19.036;2023-07-31T15:11:57;99846.97;;;26.92;37.17
56604;BME280;42486;47.478;19.036;2023-07-31T15:15:08;99844.16;;;27.11;37.39
56604;BME280;42486;47.478;19.036;2023-07-31T15:18:15;99844.12;;;26.52;37.50
56604;BME280;42486;47.478;19.036;2023-07-31T15:21:18;99850.19;;;26.59;37.78
56604;BME280;42486;47.478;19.036;2023-07-31T15:24:24;99848.34;;;26.71;37.45
56604;BME280;42486;47.478;19.036;2023-07-31T15:27:46;99845.66;;;26.71;37.69
56604;BME280;42486;47.478;19.036;2023-07-31T15:30:52;99841.37;;;26.40;37.92
56604;BME280;42486;47.478;19.036;2023-07-31T15:33:55;99844.47;;;26.55;38.37
56604;BME280;42486;47.478;19.036;2023-07-31T15:36:59;99838.38;;;26.48;37.72
56604;BME280;42486;47.478;19.036;2023-07-31T15:40:04;99836.34;;;26.32;38.48
56604;BME280;42486;47.478;19.036;2023-07-31T15:43:11;99828.78;;;26.41;38.41
56604;BME280;42486;47.478;19.036;2023-07-31T15:46:13;99816.38;;;26.46;37.50
56604;BME280;42486;47.478;19.036;2023-07-31T15:49:17;99812.03;;;26.45;37.49
56604;BME280;42486;47.478;19.036;2023-07-31T15:52:26;99815.25;;;26.35;38.24
56604;BME280;42486;47.478;19.036;2023-07-31T15:55:33;99816.38;;;26.16;37.74
56604;BME280;42486;47.478;19.036;2023-07-31T15:58:36;99815.22;;;26.12;38.40
56604;BME280;42486;47.478;19.036;2023-07-31T16:01:39;99816.06;;;26.24;37.98
56604;BME280;42486;47.478;19.036;2023-07-31T16:04:43;99812.25;;;26.32;38.10
56604;BME280;42486;47.478;19.036;2023-07-31T16:07:46;99820.81;;;26.22;37.86
56604;BME280;42486;47.478;19.036;2023-07-31T16:10:50;99814.78;;;26.15;38.57
56604;BME280;42486;47.478;19.036;2023-07-31T16:14:01;99798.09;;;26.01;38.79
56604;BME280;42486;47.478;19.036;2023-07-31T16:17:08;99797.25;;;26.01;39.05
56604;BME280;42486;47.478;19.036;2023-07-31T16:20:11;99794.34;;;26.02;38.70
56604;BME280;42486;47.478;19.036;2023-07-31T16:23:14;99800.84;;;25.95;38.98
56604;BME280;42486;47.478;19.036;2023-07-31T16:26:17;99798.75;;;25.97;39.51
56604;BME280;42486;47.478;19.036;2023-07-31T16:29:21;99806.66;;;25.73;39.05
56604;BME280;42486;47.478;19.036;2023-07-31T16:32:26;99803.84;;;25.68;39.28